Curtis, Texas
Current Conditions -  °F | °C
As of 5:15 AM on Thursday 23 Oct 2014 (Local Time) from KJAS Reporting Station
Clear Clear  
Wind Chill: 13°   Ceiling: Unl
Heat Index: 13°   Visibility: 10mi
Dew Point: 10°   Wind: 0mph
Humidity: 81%   Direction: NA
Pressure: 30.11"   Gusts: NA
Location:  30.9529°N, 94.0707°W
Report Text: KJAS 231015Z AUTO 00000KT 10SM CLR 13/10 A3011 RMK AO2 T01300098
Loading
Personal Weather Stations






























Interactive Weather Map
Tropical Storm Tracking
New forecast layout! Learn more

10-Day Weather Forecast

Advertisements
Track Severe Weather on mobile